Time;durP1;ratioP1;P1;durP2;ratioP2;P2;SDS_P1;SDS_P2;PMS_P1;PMS_P2;Temp;Humidity;BMP_temperature;BMP_pressure;BME280_temperature;BME280_humidity;BME280_pressure;Samples;Min_cycle;Max_cycle;Signal;HPM_P1;HPM_P2
2023/06/03 00:01:29;;;;;;;1.38;0.50;;;10.40;99.90;;;;;;5071886;28;20051;-78
2023/06/03 00:03:55;;;;;;;2.50;0.50;;;10.40;99.90;;;;;;5074097;28;20084;-82
2023/06/03 00:06:20;;;;;;;1.00;0.50;;;10.30;99.90;;;;;;5076830;28;20040;-81
2023/06/03 00:08:46;;;;;;;0.60;0.40;;;10.50;99.90;;;;;;5074637;28;20047;-81
2023/06/03 00:11:13;;;;;;;0.68;0.40;;;10.40;99.90;;;;;;5090659;28;20093;-83
2023/06/03 00:13:39;;;;;;;0.70;0.30;;;10.30;99.90;;;;;;5094430;28;20447;-78
2023/06/03 00:16:06;;;;;;;0.73;0.40;;;10.10;99.90;;;;;;5078218;28;20044;-85
2023/06/03 00:18:31;;;;;;;1.08;0.30;;;10.10;99.90;;;;;;5096584;28;20153;-84
2023/06/03 00:20:57;;;;;;;0.75;0.40;;;10.10;99.90;;;;;;5077698;28;20068;-82
2023/06/03 00:23:23;;;;;;;0.50;0.40;;;10.10;99.90;;;;;;5076152;28;20049;-83
2023/06/03 00:25:49;;;;;;;0.95;0.40;;;10.20;99.90;;;;;;5076136;28;20097;-82
2023/06/03 00:28:15;;;;;;;0.90;0.30;;;10.00;99.90;;;;;;5075959;28;20083;-86
2023/06/03 00:30:41;;;;;;;0.82;0.30;;;10.00;99.90;;;;;;5076056;28;20133;-84
2023/06/03 00:33:07;;;;;;;1.48;0.40;;;10.20;99.90;;;;;;5080936;28;20036;-87
2023/06/03 00:35:33;;;;;;;1.45;0.40;;;9.90;99.90;;;;;;5095875;28;20047;-85
2023/06/03 00:38:00;;;;;;;0.55;0.35;;;9.90;99.90;;;;;;5096078;28;20062;-84
2023/06/03 00:40:25;;;;;;;0.50;0.40;;;9.80;99.90;;;;;;5095907;28;20508;-82
2023/06/03 00:42:51;;;;;;;0.40;0.30;;;9.80;99.90;;;;;;5094179;28;20036;-82
2023/06/03 00:45:17;;;;;;;0.93;0.28;;;9.80;99.90;;;;;;5076879;28;20048;-79
2023/06/03 00:47:43;;;;;;;0.70;0.30;;;9.80;99.90;;;;;;5091225;28;20036;-77
2023/06/03 00:50:10;;;;;;;0.70;0.30;;;9.90;99.90;;;;;;5075325;28;20056;-80
2023/06/03 00:52:38;;;;;;;0.47;0.30;;;9.70;99.90;;;;;;5057335;28;20094;-81
2023/06/03 00:55:04;;;;;;;0.50;0.40;;;10.00;99.90;;;;;;5076265;28;20052;-78
2023/06/03 00:57:30;;;;;;;1.00;0.20;;;9.60;99.90;;;;;;5085525;28;20451;-78
2023/06/03 00:59:56;;;;;;;2.15;0.40;;;9.70;99.90;;;;;;5095378;28;20131;-77
2023/06/03 01:02:23;;;;;;;0.60;0.38;;;9.60;99.90;;;;;;5076564;28;20048;-78
2023/06/03 01:04:50;;;;;;;1.38;0.30;;;9.50;99.90;;;;;;5087232;28;20043;-77
2023/06/03 01:07:41;;;;;;;0.63;0.30;;;9.50;99.90;;;;;;5075131;28;20090;-82
2023/06/03 01:10:37;;;;;;;0.32;0.20;;;9.50;99.90;;;;;;5057218;28;20044;-79
2023/06/03 01:13:06;;;;;;;;;;;9.50;99.90;;;;;;5075546;28;20048;-83
2023/06/03 01:15:34;;;;;;;1.77;0.32;;;9.50;99.90;;;;;;5076245;28;20258;-78
2023/06/03 01:18:06;;;;;;;0.73;0.30;;;9.50;99.90;;;;;;5057102;28;20044;-81
2023/06/03 01:20:32;;;;;;;0.90;0.32;;;9.60;99.90;;;;;;5074892;28;20040;-78
2023/06/03 01:23:23;;;;;;;0.20;0.20;;;9.40;99.90;;;;;;5074462;28;20052;-79
2023/06/03 01:25:56;;;;;;;0.75;0.38;;;9.50;99.90;;;;;;4987073;28;20050;-78
2023/06/03 01:28:23;;;;;;;0.93;0.43;;;9.30;99.90;;;;;;4992789;28;20437;-79
2023/06/03 01:30:50;;;;;;;0.75;0.30;;;9.30;99.90;;;;;;4993150;28;20091;-79
2023/06/03 01:33:20;;;;;;;0.95;0.50;;;9.40;99.90;;;;;;4993155;28;20042;-81
2023/06/03 01:35:48;;;;;;;1.20;0.32;;;9.30;99.90;;;;;;4993201;28;20536;-80
2023/06/03 01:38:14;;;;;;;1.92;0.30;;;9.30;99.90;;;;;;4958443;28;20190;-78
2023/06/03 01:40:40;;;;;;;1.30;0.40;;;9.60;99.90;;;;;;4973822;28;20066;-82
2023/06/03 01:43:06;;;;;;;0.75;0.40;;;9.20;99.90;;;;;;4989228;28;20054;-81
2023/06/03 01:45:32;;;;;;;0.75;0.40;;;9.20;99.90;;;;;;4992863;28;20053;-80
2023/06/03 01:47:57;;;;;;;0.88;0.47;;;9.40;99.90;;;;;;4974722;28;20083;-82
2023/06/03 01:50:23;;;;;;;1.35;0.50;;;9.20;99.90;;;;;;4976571;28;20569;-81
2023/06/03 01:52:50;;;;;;;2.25;0.45;;;9.50;99.90;;;;;;4961703;28;20060;-78
2023/06/03 01:55:16;;;;;;;0.88;0.35;;;9.10;99.90;;;;;;4973256;28;20105;-81
2023/06/03 01:57:42;;;;;;;2.70;0.30;;;9.10;99.90;;;;;;4974275;28;20415;-82
2023/06/03 02:00:11;;;;;;;1.50;0.68;;;9.10;99.90;;;;;;4965230;28;20069;-84
2023/06/03 02:02:37;;;;;;;0.63;0.30;;;9.00;99.90;;;;;;5026716;28;20439;-85
2023/06/03 02:05:03;;;;;;;0.40;0.30;;;9.00;99.90;;;;;;5093766;28;20099;-85
2023/06/03 02:07:32;;;;;;;1.10;0.50;;;9.00;99.90;;;;;;5076359;28;20080;-82
2023/06/03 02:09:58;;;;;;;0.20;0.20;;;9.00;99.90;;;;;;5090725;28;20044;-83
2023/06/03 02:12:23;;;;;;;0.30;0.25;;;9.10;99.90;;;;;;5074071;28;20056;-79
2023/06/03 02:14:53;;;;;;;0.70;0.40;;;9.00;99.90;;;;;;5073983;28;20078;-82
2023/06/03 02:17:26;;;;;;;0.60;0.40;;;9.00;99.90;;;;;;5056213;28;20054;-84
2023/06/03 02:19:53;;;;;;;2.05;0.40;;;8.90;99.90;;;;;;5074996;28;20143;-80
2023/06/03 02:22:19;;;;;;;0.40;0.30;;;8.90;99.90;;;;;;5056166;28;20052;-80
2023/06/03 02:24:49;;;;;;;0.52;0.40;;;9.20;99.90;;;;;;5093171;28;20040;-85
2023/06/03 02:27:19;;;;;;;0.30;0.30;;;9.00;99.90;;;;;;5094075;28;20044;-80
2023/06/03 02:29:50;;;;;;;0.70;0.35;;;9.20;99.90;;;;;;5073953;28;20492;-78
2023/06/03 02:32:18;;;;;;;0.60;0.38;;;8.70;99.90;;;;;;5093503;28;20114;-81
2023/06/03 02:34:44;;;;;;;1.17;0.40;;;8.70;99.90;;;;;;5074949;28;20503;-78
2023/06/03 02:37:10;;;;;;;1.13;0.60;;;8.70;99.90;;;;;;5074195;28;20093;-79
2023/06/03 02:39:37;;;;;;;0.70;0.40;;;8.60;99.90;;;;;;5075590;28;20123;-83
2023/06/03 02:42:03;;;;;;;1.15;0.40;;;8.70;99.90;;;;;;5091771;28;20024;-83
2023/06/03 02:44:29;;;;;;;1.20;0.40;;;8.50;99.90;;;;;;5084176;28;20048;-85
2023/06/03 02:46:55;;;;;;;0.55;0.40;;;8.50;99.90;;;;;;5073297;28;20041;-80
2023/06/03 02:49:21;;;;;;;1.33;0.40;;;8.40;99.90;;;;;;5073551;28;20056;-81
2023/06/03 02:51:46;;;;;;;1.40;0.40;;;8.40;99.90;;;;;;5062821;28;20121;-86
2023/06/03 02:54:12;;;;;;;0.90;0.50;;;8.60;99.90;;;;;;5093631;28;20110;-85
2023/06/03 02:56:37;;;;;;;0.50;0.40;;;8.30;99.90;;;;;;5075536;28;20509;-85
2023/06/03 02:59:03;;;;;;;0.70;0.50;;;8.20;99.90;;;;;;5093455;28;20404;-85
2023/06/03 03:01:30;;;;;;;1.30;0.77;;;8.30;99.90;;;;;;5092981;28;20044;-82
2023/06/03 03:03:56;;;;;;;1.00;0.47;;;8.20;99.90;;;;;;5082183;28;20054;-81
2023/06/03 03:06:21;;;;;;;1.70;0.55;;;8.20;99.90;;;;;;5074165;28;20389;-81
2023/06/03 03:08:48;;;;;;;1.02;0.40;;;8.20;99.90;;;;;;5074046;28;20036;-86
2023/06/03 03:11:14;;;;;;;0.32;0.30;;;8.30;99.90;;;;;;5073679;28;20040;-84
2023/06/03 03:13:41;;;;;;;0.38;0.30;;;8.60;99.90;;;;;;5075296;28;20048;-85
2023/06/03 03:16:08;;;;;;;0.93;0.47;;;8.20;99.90;;;;;;5092626;28;20040;-78
2023/06/03 03:18:34;;;;;;;0.70;0.40;;;8.50;99.90;;;;;;5109871;28;20040;-78
2023/06/03 03:20:59;;;;;;;0.65;0.32;;;8.40;99.90;;;;;;5110133;28;20036;-79
2023/06/03 03:23:27;;;;;;;1.48;0.50;;;8.10;99.90;;;;;;5097340;28;20036;-80
2023/06/03 03:25:53;;;;;;;2.40;0.50;;;8.50;99.90;;;;;;5073754;28;20500;-79
2023/06/03 03:28:19;;;;;;;2.30;0.40;;;8.00;99.90;;;;;;5073574;28;20045;-78
2023/06/03 03:30:46;;;;;;;1.30;0.50;;;8.50;99.90;;;;;;5046407;28;20077;-78
2023/06/03 03:33:15;;;;;;;0.80;0.50;;;8.00;99.90;;;;;;5093110;28;20071;-82
2023/06/03 03:35:40;;;;;;;1.25;0.50;;;8.10;99.90;;;;;;5072865;28;20068;-81
2023/06/03 03:38:07;;;;;;;2.30;0.40;;;8.80;99.90;;;;;;5092288;28;20136;-83
2023/06/03 03:40:36;;;;;;;0.68;0.40;;;8.40;99.90;;;;;;5075244;28;20399;-80
2023/06/03 03:43:02;;;;;;;0.90;0.52;;;8.70;99.90;;;;;;5074923;28;20062;-78
2023/06/03 03:45:36;;;;;;;1.58;0.50;;;8.10;99.90;;;;;;5066452;28;20041;-78
2023/06/03 03:48:04;;;;;;;0.75;0.40;;;8.40;99.90;;;;;;5076600;28;20045;-78
2023/06/03 03:50:47;;;;;;;0.93;0.40;;;8.10;99.90;;;;;;5076849;28;20082;-82
2023/06/03 03:53:15;;;;;;;0.60;0.30;;;8.10;99.90;;;;;;5058426;28;20523;-78
2023/06/03 03:55:53;;;;;;;0.73;0.50;;;8.10;99.90;;;;;;5059497;28;20032;-82
2023/06/03 03:58:29;;;;;;;0.82;0.50;;;8.20;99.90;;;;;;5076158;28;20050;-78
2023/06/03 04:01:09;;;;;;;0.68;0.38;;;8.90;99.90;;;;;;5076800;28;20037;-79
2023/06/03 04:03:40;;;;;;;0.75;0.40;;;8.30;99.90;;;;;;5075766;28;20142;-80
2023/06/03 04:06:10;;;;;;;0.52;0.40;;;8.60;99.90;;;;;;5059286;28;20074;-80
2023/06/03 04:08:47;;;;;;;1.02;0.43;;;8.50;99.90;;;;;;5058101;28;20127;-79
2023/06/03 04:11:28;;;;;;;0.65;0.40;;;9.10;99.90;;;;;;5058098;28;20036;-78
2023/06/03 04:13:55;;;;;;;0.50;0.40;;;8.50;99.90;;;;;;5075954;28;20044;-83
2023/06/03 04:16:42;;;;;;;1.23;0.40;;;8.50;99.90;;;;;;5058277;28;20090;-79
2023/06/03 04:19:18;;;;;;;0.35;0.30;;;8.60;99.90;;;;;;5052245;28;20427;-80
2023/06/03 04:21:44;;;;;;;0.80;0.47;;;8.60;99.90;;;;;;5079237;28;20040;-79
2023/06/03 04:24:11;;;;;;;0.52;0.40;;;8.70;99.90;;;;;;5058449;28;20400;-79
2023/06/03 04:26:37;;;;;;;0.73;0.43;;;8.80;99.90;;;;;;5058246;28;20048;-82
2023/06/03 04:29:02;;;;;;;0.65;0.47;;;9.20;99.90;;;;;;5058762;28;20136;-81
2023/06/03 04:31:28;;;;;;;1.05;0.30;;;8.90;99.90;;;;;;5058633;28;20045;-80
2023/06/03 04:33:54;;;;;;;1.48;0.93;;;9.10;99.90;;;;;;5075845;28;20040;-80
2023/06/03 04:36:20;;;;;;;1.30;0.50;;;9.20;99.90;;;;;;5075675;28;20048;-81
2023/06/03 04:38:46;;;;;;;0.60;0.40;;;9.10;99.90;;;;;;5059154;28;20049;-79
2023/06/03 04:41:14;;;;;;;0.90;0.57;;;9.40;99.90;;;;;;5091707;28;20072;-79
2023/06/03 04:43:40;;;;;;;0.60;0.40;;;9.40;99.90;;;;;;5095919;28;20040;-83
2023/06/03 04:46:09;;;;;;;0.47;0.40;;;9.60;99.90;;;;;;5095558;28;20118;-80
2023/06/03 04:48:35;;;;;;;1.42;0.45;;;9.50;99.90;;;;;;5095779;28;20054;-80
2023/06/03 04:51:06;;;;;;;0.40;0.40;;;9.70;99.90;;;;;;5075191;28;20484;-81
2023/06/03 04:53:32;;;;;;;0.70;0.40;;;9.60;99.90;;;;;;5076103;28;20048;-81
2023/06/03 04:55:58;;;;;;;0.57;0.40;;;10.00;99.90;;;;;;5075856;28;20037;-78
2023/06/03 04:58:24;;;;;;;1.05;0.32;;;9.80;99.90;;;;;;5074485;28;20045;-80
2023/06/03 05:00:49;;;;;;;1.25;0.40;;;10.00;99.90;;;;;;5076298;28;20047;-78
2023/06/03 05:03:16;;;;;;;1.30;0.40;;;10.10;99.90;;;;;;5075038;28;20105;-78
2023/06/03 05:05:43;;;;;;;0.80;0.40;;;10.10;99.90;;;;;;5075041;28;20565;-79
2023/06/03 05:08:12;;;;;;;1.67;0.50;;;10.20;99.90;;;;;;5075425;28;20097;-80
2023/06/03 05:10:38;;;;;;;1.02;0.50;;;10.30;99.90;;;;;;5091115;28;20164;-80
2023/06/03 05:13:07;;;;;;;2.97;0.45;;;10.40;99.90;;;;;;5068498;28;20126;-79
2023/06/03 05:15:37;;;;;;;0.50;0.30;;;10.50;99.90;;;;;;5077409;28;20119;-80
2023/06/03 05:18:03;;;;;;;0.93;0.40;;;10.50;99.90;;;;;;5068199;28;20544;-79
2023/06/03 05:20:30;;;;;;;0.60;0.38;;;10.70;99.90;;;;;;5057015;28;20140;-79
2023/06/03 05:22:55;;;;;;;0.80;0.40;;;10.80;99.90;;;;;;5058095;28;20045;-78
2023/06/03 05:25:22;;;;;;;0.75;0.40;;;10.90;99.90;;;;;;5057095;28;20048;-79
2023/06/03 05:27:48;;;;;;;0.88;0.50;;;11.20;99.90;;;;;;5075698;28;20070;-81
2023/06/03 05:30:14;;;;;;;0.70;0.40;;;11.20;99.90;;;;;;5074709;28;20048;-81
2023/06/03 05:32:41;;;;;;;1.60;0.50;;;11.40;99.90;;;;;;5075669;28;20109;-79
2023/06/03 05:35:09;;;;;;;1.08;0.40;;;11.50;99.90;;;;;;5039830;28;20079;-82
2023/06/03 05:37:35;;;;;;;0.65;0.50;;;11.60;99.90;;;;;;5040287;28;20542;-81
2023/06/03 05:40:00;;;;;;;2.28;0.50;;;11.80;99.90;;;;;;5074635;28;20040;-80
2023/06/03 05:42:26;;;;;;;2.97;0.60;;;12.10;99.90;;;;;;5056860;28;20070;-79
2023/06/03 05:44:52;;;;;;;1.52;0.40;;;12.10;99.90;;;;;;5067386;28;20040;-80
2023/06/03 05:47:17;;;;;;;2.38;0.63;;;12.30;99.90;;;;;;5076326;28;20109;-81
2023/06/03 05:49:43;;;;;;;1.48;0.40;;;12.50;99.90;;;;;;5076775;28;20557;-78
2023/06/03 05:52:08;;;;;;;2.47;0.60;;;12.60;99.90;;;;;;5094020;28;20047;-78
2023/06/03 05:54:34;;;;;;;2.92;0.32;;;12.70;99.90;;;;;;5073738;28;20043;-79
2023/06/03 05:57:00;;;;;;;2.40;0.57;;;12.90;99.90;;;;;;5090662;28;20131;-79
2023/06/03 05:59:25;;;;;;;0.90;0.50;;;13.00;99.90;;;;;;5074111;28;20115;-80
2023/06/03 06:01:51;;;;;;;3.58;0.60;;;13.10;99.90;;;;;;5056259;28;20198;-80
2023/06/03 06:04:17;;;;;;;0.75;0.50;;;13.20;99.90;;;;;;5075344;28;20048;-80
2023/06/03 06:06:43;;;;;;;1.73;0.50;;;13.30;99.90;;;;;;5073725;28;20053;-82
2023/06/03 06:09:08;;;;;;;0.90;0.25;;;13.50;99.90;;;;;;5055943;28;20049;-82
2023/06/03 06:11:34;;;;;;;1.63;0.50;;;13.70;99.90;;;;;;5055949;28;20071;-81
2023/06/03 06:14:00;;;;;;;0.68;0.43;;;13.80;99.90;;;;;;5055940;28;20040;-84
2023/06/03 06:16:25;;;;;;;1.33;0.60;;;14.10;99.90;;;;;;5075009;28;20029;-82
2023/06/03 06:18:51;;;;;;;0.68;0.30;;;14.00;99.90;;;;;;5055797;28;20485;-81
2023/06/03 06:21:17;;;;;;;0.80;0.43;;;14.20;99.90;;;;;;5073670;28;20066;-80
2023/06/03 06:23:43;;;;;;;0.50;0.32;;;14.30;99.90;;;;;;5073611;28;20549;-81
2023/06/03 06:26:09;;;;;;;0.60;0.32;;;14.50;99.90;;;;;;5056631;28;20044;-82
2023/06/03 06:28:35;;;;;;;1.17;0.40;;;14.50;99.90;;;;;;5055433;28;20132;-83
2023/06/03 06:31:05;;;;;;;1.90;0.40;;;14.70;99.90;;;;;;5073360;28;20471;-81
2023/06/03 06:33:34;;;;;;;1.20;0.40;;;14.80;99.90;;;;;;5075728;28;20050;-80
2023/06/03 06:36:41;;;;;;;0.63;0.38;;;14.90;99.90;;;;;;5075056;28;20471;-81
2023/06/03 06:39:21;;;;;;;1.08;0.30;;;15.10;99.90;;;;;;5057270;28;20045;-81
2023/06/03 06:41:46;;;;;;;0.45;0.25;;;15.30;99.90;;;;;;5073430;28;20048;-80
2023/06/03 06:44:12;;;;;;;1.42;0.47;;;15.50;99.90;;;;;;5084033;28;20036;-81
2023/06/03 06:46:38;;;;;;;2.28;0.60;;;15.60;99.90;;;;;;5093343;28;20040;-79
2023/06/03 06:49:03;;;;;;;0.50;0.30;;;15.70;99.90;;;;;;5092167;28;20044;-81
2023/06/03 06:51:30;;;;;;;2.10;0.30;;;16.00;99.90;;;;;;5075440;28;20075;-80
2023/06/03 06:53:58;;;;;;;1.38;0.30;;;16.10;99.90;;;;;;5074414;28;20047;-81
2023/06/03 06:56:25;;;;;;;2.03;0.32;;;16.30;99.90;;;;;;5083305;28;20045;-81
2023/06/03 06:58:51;;;;;;;0.63;0.30;;;16.50;99.90;;;;;;5066238;28;20047;-85
2023/06/03 07:01:17;;;;;;;1.00;0.40;;;16.70;99.90;;;;;;5067279;28;20043;-82
2023/06/03 07:03:42;;;;;;;0.98;0.30;;;16.80;99.30;;;;;;5088633;28;20443;-80
2023/06/03 07:06:08;;;;;;;1.00;0.40;;;17.00;99.20;;;;;;5091409;28;20056;-82
2023/06/03 07:08:34;;;;;;;3.20;0.40;;;17.10;98.10;;;;;;5091490;28;20044;-82
2023/06/03 07:11:02;;;;;;;1.88;0.30;;;17.20;99.00;;;;;;5092815;28;20036;-81
2023/06/03 07:13:28;;;;;;;2.92;0.30;;;17.40;99.00;;;;;;5087182;28;20566;-82
2023/06/03 07:15:55;;;;;;;3.60;0.40;;;17.50;97.70;;;;;;5083700;28;20072;-81
2023/06/03 07:18:21;;;;;;;0.73;0.35;;;17.70;97.90;;;;;;5093014;28;20043;-82
2023/06/03 07:20:48;;;;;;;0.38;0.20;;;17.70;98.10;;;;;;5059116;28;20123;-80
2023/06/03 07:23:22;;;;;;;1.08;0.50;;;17.70;99.90;;;;;;5088994;28;20097;-79
2023/06/03 07:25:49;;;;;;;1.13;0.30;;;17.60;97.00;;;;;;5092818;28;20101;-81
2023/06/03 07:28:20;;;;;;;0.70;0.30;;;17.40;95.70;;;;;;5092594;28;20131;-84
2023/06/03 07:30:47;;;;;;;0.80;0.32;;;17.30;95.10;;;;;;5072983;28;20036;-81
2023/06/03 07:33:29;;;;;;;0.98;0.30;;;17.20;96.50;;;;;;5073666;28;20404;-80
2023/06/03 07:36:01;;;;;;;1.52;0.32;;;17.20;96.30;;;;;;5071992;28;20123;-81
2023/06/03 07:38:39;;;;;;;0.60;0.20;;;17.20;97.40;;;;;;5071492;28;20084;-83
2023/06/03 07:41:06;;;;;;;0.40;0.30;;;17.10;96.10;;;;;;5087213;28;20040;-81
2023/06/03 07:43:33;;;;;;;1.75;0.30;;;17.20;97.00;;;;;;5072544;28;20401;-81
2023/06/03 07:46:09;;;;;;;0.43;0.30;;;17.20;95.90;;;;;;5072688;28;20049;-81
2023/06/03 07:48:38;;;;;;;1.17;0.28;;;17.30;97.60;;;;;;5054652;28;20049;-85
2023/06/03 07:51:05;;;;;;;0.30;0.20;;;17.50;97.40;;;;;;5072090;28;20044;-80
2023/06/03 07:53:36;;;;;;;0.32;0.22;;;17.60;96.20;;;;;;5063650;28;20052;-79
2023/06/03 07:56:12;;;;;;;1.35;0.30;;;17.70;95.60;;;;;;5080891;28;20375;-80
2023/06/03 07:58:38;;;;;;;0.52;0.30;;;17.80;95.90;;;;;;5072323;28;20154;-81
2023/06/03 08:01:04;;;;;;;0.63;0.30;;;17.90;96.20;;;;;;5072340;28;20037;-82
2023/06/03 08:03:30;;;;;;;0.88;0.30;;;18.10;96.10;;;;;;5054736;28;20560;-80
2023/06/03 08:05:56;;;;;;;0.77;0.30;;;18.30;93.80;;;;;;5072079;28;20171;-81
2023/06/03 08:08:29;;;;;;;0.35;0.20;;;18.40;95.20;;;;;;5072193;28;20076;-80
2023/06/03 08:10:55;;;;;;;0.95;0.30;;;18.50;93.90;;;;;;5055645;28;20045;-82
2023/06/03 08:13:21;;;;;;;0.38;0.30;;;18.50;94.80;;;;;;5055226;28;20466;-83
2023/06/03 08:15:47;;;;;;;1.30;0.30;;;18.50;93.50;;;;;;5054150;28;20040;-81
2023/06/03 08:18:25;;;;;;;1.02;0.40;;;18.40;93.60;;;;;;5037874;28;20057;-80
2023/06/03 08:20:50;;;;;;;1.08;0.30;;;18.40;93.50;;;;;;5072084;28;20408;-81
2023/06/03 08:23:16;;;;;;;2.55;0.30;;;18.60;92.60;;;;;;5055156;28;20048;-81
2023/06/03 08:25:42;;;;;;;1.40;0.30;;;18.50;93.10;;;;;;5072777;28;20049;-81
2023/06/03 08:28:08;;;;;;;0.50;0.30;;;18.60;92.30;;;;;;5054559;28;20485;-81
2023/06/03 08:30:34;;;;;;;1.00;0.30;;;18.80;92.20;;;;;;5088526;28;20047;-86
2023/06/03 08:33:00;;;;;;;1.15;0.30;;;18.90;92.30;;;;;;5075230;28;20047;-80
2023/06/03 08:35:26;;;;;;;1.50;0.30;;;19.00;92.10;;;;;;5085840;28;20045;-83
2023/06/03 08:37:52;;;;;;;0.80;0.30;;;19.20;92.50;;;;;;5057665;28;20048;-85
2023/06/03 08:40:21;;;;;;;0.40;0.30;;;19.50;91.80;;;;;;5075766;28;20115;-84
2023/06/03 08:42:48;;;;;;;1.50;0.30;;;19.20;90.20;;;;;;5075623;28;20044;-85
2023/06/03 08:45:19;;;;;;;0.50;0.20;;;19.30;90.80;;;;;;5068779;28;20557;-86
2023/06/03 08:47:53;;;;;;;1.00;0.20;;;19.50;89.10;;;;;;5095075;28;20123;-85
2023/06/03 08:50:22;;;;;;;1.00;0.30;;;19.50;88.10;;;;;;5072620;28;20051;-87
2023/06/03 08:52:51;;;;;;;0.85;0.30;;;19.70;89.80;;;;;;5075743;28;20100;-89
2023/06/03 08:55:17;;;;;;;0.50;0.30;;;19.80;89.80;;;;;;5077634;28;20453;-86
2023/06/03 08:57:56;;;;;;;0.38;0.20;;;19.80;90.70;;;;;;5077510;28;20040;-87
2023/06/03 09:00:24;;;;;;;0.80;0.30;;;20.20;91.50;;;;;;5095593;28;20153;-86
2023/06/03 09:02:53;;;;;;;0.30;0.20;;;20.10;85.80;;;;;;5093504;28;20412;-87
2023/06/03 09:05:20;;;;;;;0.55;0.17;;;20.20;85.00;;;;;;5095536;28;20052;-89
2023/06/03 09:07:50;;;;;;;0.40;0.40;;;20.20;83.60;;;;;;5095309;28;20102;-89
2023/06/03 09:10:25;;;;;;;1.55;0.30;;;20.30;86.90;;;;;;5070662;28;20095;-88
2023/06/03 09:12:54;;;;;;;;;;;20.40;87.30;;;;;;5040765;28;20090;-88
2023/06/03 09:15:20;;;;;;;0.63;0.20;;;20.40;85.20;;;;;;5074981;28;20292;-88
2023/06/03 09:17:46;;;;;;;3.33;0.30;;;20.40;80.30;;;;;;5057457;28;20063;-86
2023/06/03 09:20:13;;;;;;;0.52;0.30;;;20.40;81.00;;;;;;5075093;28;20040;-85
2023/06/03 09:22:41;;;;;;;0.75;0.25;;;20.50;81.40;;;;;;5057141;28;20132;-85
2023/06/03 09:25:08;;;;;;;0.70;0.30;;;20.30;80.90;;;;;;5092848;28;20036;-84
2023/06/03 09:27:34;;;;;;;2.33;0.30;;;20.50;79.40;;;;;;5094350;28;20044;-85
2023/06/03 09:30:02;;;;;;;1.08;0.40;;;20.50;80.30;;;;;;5076834;28;20122;-86
2023/06/03 09:32:30;;;;;;;0.30;0.20;;;20.60;78.30;;;;;;5058394;28;20152;-86
2023/06/03 09:34:57;;;;;;;1.00;0.30;;;20.60;77.40;;;;;;5065710;28;20386;-85
2023/06/03 09:37:23;;;;;;;0.60;0.30;;;20.70;78.70;;;;;;5076623;28;20614;-85
2023/06/03 09:39:48;;;;;;;0.65;0.20;;;20.90;81.40;;;;;;5094878;28;20080;-84
2023/06/03 09:42:15;;;;;;;0.50;0.25;;;21.00;80.90;;;;;;5076529;28;20074;-87
2023/06/03 09:44:42;;;;;;;0.47;0.22;;;21.20;81.50;;;;;;5078222;28;20082;-85
2023/06/03 09:47:08;;;;;;;0.30;0.20;;;21.30;81.90;;;;;;5061028;28;20069;-86
2023/06/03 09:49:34;;;;;;;3.45;0.30;;;21.50;80.40;;;;;;5091914;28;20044;-85
2023/06/03 09:52:00;;;;;;;0.60;0.20;;;21.20;76.20;;;;;;5092084;28;20094;-85
2023/06/03 09:54:26;;;;;;;0.80;0.30;;;21.30;76.00;;;;;;5091884;28;20029;-84
2023/06/03 09:56:52;;;;;;;0.63;0.32;;;21.20;76.70;;;;;;5075508;28;20098;-86
2023/06/03 09:59:21;;;;;;;0.47;0.20;;;21.00;76.00;;;;;;5078534;28;20037;-84
2023/06/03 10:01:48;;;;;;;2.88;0.30;;;21.30;77.50;;;;;;5093818;28;20079;-86
2023/06/03 10:04:23;;;;;;;0.35;0.10;;;21.40;76.40;;;;;;5073391;28;20051;-86
2023/06/03 10:07:13;;;;;;;0.20;0.10;;;21.50;75.50;;;;;;5073499;28;20111;-85
2023/06/03 10:09:44;;;;;;;1.13;0.30;;;21.60;78.50;;;;;;4988559;28;20062;-87
2023/06/03 10:12:15;;;;;;;1.35;0.30;;;21.80;76.00;;;;;;4991357;28;20169;-86
2023/06/03 10:14:45;;;;;;;0.60;0.30;;;21.60;72.70;;;;;;4990061;28;20042;-86
2023/06/03 10:17:12;;;;;;;1.95;0.30;;;21.80;73.80;;;;;;4967113;28;20046;-87
2023/06/03 10:19:40;;;;;;;2.38;1.15;;;22.00;76.10;;;;;;4987817;28;20038;-87
2023/06/03 10:22:08;;;;;;;0.68;0.30;;;22.10;74.80;;;;;;4976619;28;20054;-87
2023/06/03 10:24:37;;;;;;;1.17;0.40;;;22.20;72.70;;;;;;4992496;28;20050;-87
2023/06/03 10:27:03;;;;;;;1.10;0.20;;;22.20;72.30;;;;;;4975896;28;20054;-87
2023/06/03 10:29:32;;;;;;;0.70;0.30;;;22.20;73.10;;;;;;4975160;28;20054;-87
2023/06/03 10:32:00;;;;;;;0.85;0.30;;;22.00;73.20;;;;;;4992411;28;20056;-87
2023/06/03 10:34:29;;;;;;;0.80;0.30;;;22.20;74.60;;;;;;4974616;28;20129;-87
2023/06/03 10:36:57;;;;;;;0.30;0.20;;;22.30;75.70;;;;;;4992389;28;20082;-88
2023/06/03 10:39:26;;;;;;;0.85;0.20;;;22.40;77.20;;;;;;4976100;28;20058;-86
2023/06/03 10:41:57;;;;;;;1.85;0.52;;;22.50;74.80;;;;;;4992283;28;20502;-87
2023/06/03 10:44:24;;;;;;;0.40;0.20;;;22.60;72.90;;;;;;4975852;28;20061;-88
2023/06/03 10:46:55;;;;;;;0.55;0.30;;;22.60;72.60;;;;;;5039790;28;20448;-86
2023/06/03 10:49:24;;;;;;;1.20;0.40;;;22.60;73.30;;;;;;5071040;28;20511;-87
2023/06/03 10:55:48;;;;;;;0.63;0.32;;;22.60;70.50;;;;;;5072153;28;20042;-87
2023/06/03 10:58:23;;;;;;;0.85;0.30;;;22.50;71.40;;;;;;5055139;28;20080;-87
2023/06/03 11:01:04;;;;;;;1.52;0.50;;;22.60;72.90;;;;;;5073519;28;20114;-89
2023/06/03 11:03:34;;;;;;;1.35;0.30;;;22.50;71.40;;;;;;5070089;28;20052;-89
2023/06/03 11:06:18;;;;;;;0.47;0.25;;;22.60;71.30;;;;;;5071813;28;20118;-89
2023/06/03 11:09:03;;;;;;;1.77;0.32;;;22.50;70.50;;;;;;5064716;28;20133;-86
2023/06/03 11:11:41;;;;;;;1.20;0.50;;;22.30;71.00;;;;;;5055384;28;20101;-87
2023/06/03 11:14:11;;;;;;;1.13;0.30;;;22.30;70.80;;;;;;5055312;28;20108;-88
2023/06/03 11:16:58;;;;;;;0.30;0.20;;;22.50;71.90;;;;;;5055167;28;20059;-88
2023/06/03 11:19:29;;;;;;;0.60;0.38;;;22.80;72.20;;;;;;5056659;28;20041;-88
2023/06/03 11:21:55;;;;;;;1.30;0.25;;;22.90;69.50;;;;;;5072858;28;20430;-88
2023/06/03 11:24:41;;;;;;;0.55;0.20;;;22.70;71.40;;;;;;5055075;28;20039;-86
2023/06/03 11:27:10;;;;;;;0.98;0.30;;;22.60;70.20;;;;;;5092770;28;20591;-86
2023/06/03 11:29:48;;;;;;;0.40;0.20;;;22.80;71.00;;;;;;5073896;28;20126;-87
2023/06/03 11:32:21;;;;;;;1.08;0.30;;;22.50;71.90;;;;;;5092891;28;20051;-86
2023/06/03 11:34:48;;;;;;;0.47;0.25;;;22.70;70.20;;;;;;5074962;28;20498;-86
2023/06/03 11:37:17;;;;;;;0.40;0.10;;;22.70;70.30;;;;;;5072824;28;20054;-86
2023/06/03 11:40:12;;;;;;;0.75;0.30;;;22.90;70.10;;;;;;5074930;28;20487;-85
2023/06/03 11:42:47;;;;;;;2.28;0.50;;;23.00;70.80;;;;;;5067297;28;20044;-87
2023/06/03 11:45:24;;;;;;;5.57;0.40;;;22.70;69.00;;;;;;5054728;28;20045;-88
2023/06/03 11:47:53;;;;;;;0.52;0.20;;;22.80;71.10;;;;;;5073657;28;20460;-86
2023/06/03 11:50:20;;;;;;;3.35;0.20;;;22.80;69.70;;;;;;5072390;28;20048;-85
2023/06/03 11:52:46;;;;;;;0.98;0.20;;;22.80;69.20;;;;;;5054280;28;20089;-85
2023/06/03 11:55:25;;;;;;;0.50;0.28;;;23.00;72.70;;;;;;5054666;28;20520;-84
2023/06/03 11:57:51;;;;;;;0.63;0.30;;;22.80;71.70;;;;;;5054755;28;20091;-85
2023/06/03 12:00:19;;;;;;;1.05;0.30;;;22.90;71.50;;;;;;5085382;28;20084;-86
2023/06/03 12:02:48;;;;;;;0.40;0.22;;;23.10;71.90;;;;;;5090768;28;20039;-87
2023/06/03 12:05:17;;;;;;;1.00;0.20;;;23.20;71.70;;;;;;5092241;28;20052;-85
2023/06/03 12:07:58;;;;;;;1.23;0.50;;;23.50;70.90;;;;;;5076197;28;20048;-85
2023/06/03 12:10:24;;;;;;;0.40;0.13;;;23.10;69.50;;;;;;5078161;28;20138;-85
2023/06/03 12:12:57;;;;;;;1.40;0.30;;;23.10;73.60;;;;;;5096473;28;20059;-89
2023/06/03 12:15:24;;;;;;;0.90;0.30;;;23.30;71.60;;;;;;5078231;28;20048;-88
2023/06/03 12:17:51;;;;;;;1.25;0.15;;;23.20;70.90;;;;;;5076558;28;20381;-86
2023/06/03 12:20:27;;;;;;;1.98;0.32;;;23.50;71.90;;;;;;5059984;28;20392;-84
2023/06/03 12:23:00;;;;;;;0.40;0.20;;;23.70;71.30;;;;;;5096928;28;20105;-85
2023/06/03 12:25:27;;;;;;;0.20;0.10;;;23.50;70.80;;;;;;5096798;28;20044;-85
2023/06/03 12:27:54;;;;;;;0.43;0.17;;;23.60;71.10;;;;;;5094335;28;20235;-85
2023/06/03 12:30:31;;;;;;;0.65;0.20;;;23.20;69.70;;;;;;5078142;28;20051;-86
2023/06/03 12:32:59;;;;;;;1.15;0.20;;;22.90;70.50;;;;;;5096445;28;20051;-85
2023/06/03 12:35:27;;;;;;;0.35;0.25;;;23.00;70.40;;;;;;5078050;28;20111;-85
2023/06/03 12:38:07;;;;;;;1.67;0.20;;;23.10;69.40;;;;;;5078115;28;20747;-85
2023/06/03 12:40:35;;;;;;;0.50;0.20;;;23.10;68.50;;;;;;5096198;28;20079;-85
2023/06/03 12:43:03;;;;;;;1.88;0.28;;;23.10;70.70;;;;;;5094567;28;20443;-85
2023/06/03 12:45:29;;;;;;;0.47;0.30;;;23.40;70.00;;;;;;5095945;28;20044;-85
2023/06/03 12:47:55;;;;;;;0.70;0.20;;;;;;;;;;5096116;28;20044;-84
2023/06/03 12:50:23;;;;;;;1.17;0.10;;;;;;;;;;5077772;28;20492;-84
2023/06/03 12:52:49;;;;;;;0.30;0.20;;;;;;;;;;5076013;28;20040;-86
2023/06/03 12:55:16;;;;;;;1.00;0.30;;;;;;;;;;5076838;28;20051;-88
2023/06/03 12:57:44;;;;;;;0.17;0.10;;;;;;;;;;5095359;28;20054;-85
2023/06/03 13:00:19;;;;;;;1.40;0.30;;;;;;;;;;5076542;28;20040;-85
2023/06/03 13:02:49;;;;;;;1.25;0.17;;;;;;;;;;5077212;28;20059;-86
2023/06/03 13:05:16;;;;;;;1.27;0.30;;;23.30;68.00;;;;;;5075333;28;20584;-86